sensor_id;sensor_type;location;lat;lon;timestamp;temperature;humidity
51811;DHT22;52468;40.116;18.296;2023-11-19T00:00:19;12.00;48.50
51811;DHT22;52468;40.116;18.296;2023-11-19T00:02:47;12.00;48.40
51811;DHT22;52468;40.116;18.296;2023-11-19T00:05:15;12.00;48.50
51811;DHT22;52468;40.116;18.296;2023-11-19T00:07:43;12.00;48.70
51811;DHT22;52468;40.116;18.296;2023-11-19T00:10:14;12.00;48.80
51811;DHT22;52468;40.116;18.296;2023-11-19T00:12:43;12.00;49.00
51811;DHT22;52468;40.116;18.296;2023-11-19T00:15:18;12.00;49.30
51811;DHT22;52468;40.116;18.296;2023-11-19T00:17:47;11.90;49.60
51811;DHT22;52468;40.116;18.296;2023-11-19T00:20:17;11.90;49.70
51811;DHT22;52468;40.116;18.296;2023-11-19T00:22:46;11.90;50.20
51811;DHT22;52468;40.116;18.296;2023-11-19T00:25:19;11.90;50.40
51811;DHT22;52468;40.116;18.296;2023-11-19T00:27:48;12.00;50.40
51811;DHT22;52468;40.116;18.296;2023-11-19T00:30:16;11.90;50.60
51811;DHT22;52468;40.116;18.296;2023-11-19T00:32:44;11.80;50.70
51811;DHT22;52468;40.116;18.296;2023-11-19T00:35:13;11.80;50.80
51811;DHT22;52468;40.116;18.296;2023-11-19T00:37:42;11.70;50.80
51811;DHT22;52468;40.116;18.296;2023-11-19T00:40:17;11.70;50.60
51811;DHT22;52468;40.116;18.296;2023-11-19T00:42:46;11.70;50.50
51811;DHT22;52468;40.116;18.296;2023-11-19T00:45:14;11.70;49.90
51811;DHT22;52468;40.116;18.296;2023-11-19T00:47:41;11.70;49.70
51811;DHT22;52468;40.116;18.296;2023-11-19T00:50:10;11.70;49.50
51811;DHT22;52468;40.116;18.296;2023-11-19T00:52:39;11.80;49.20
51811;DHT22;52468;40.116;18.296;2023-11-19T00:55:07;11.80;48.90
51811;DHT22;52468;40.116;18.296;2023-11-19T00:57:35;11.80;48.60
51811;DHT22;52468;40.116;18.296;2023-11-19T01:00:05;11.80;48.30
51811;DHT22;52468;40.116;18.296;2023-11-19T01:02:53;11.80;47.90
51811;DHT22;52468;40.116;18.296;2023-11-19T01:05:21;11.90;47.60
51811;DHT22;52468;40.116;18.296;2023-11-19T01:07:51;11.90;47.50
51811;DHT22;52468;40.116;18.296;2023-11-19T01:10:21;12.00;47.30
51811;DHT22;52468;40.116;18.296;2023-11-19T01:12:49;12.00;47.40
51811;DHT22;52468;40.116;18.296;2023-11-19T01:15:17;12.00;47.40
51811;DHT22;52468;40.116;18.296;2023-11-19T01:17:46;11.90;47.50
51811;DHT22;52468;40.116;18.296;2023-11-19T01:20:17;12.00;47.50
51811;DHT22;52468;40.116;18.296;2023-11-19T01:22:45;11.90;47.70
51811;DHT22;52468;40.116;18.296;2023-11-19T01:25:13;11.90;47.80
51811;DHT22;52468;40.116;18.296;2023-11-19T01:27:41;11.90;48.00
51811;DHT22;52468;40.116;18.296;2023-11-19T01:30:10;11.80;48.10
51811;DHT22;52468;40.116;18.296;2023-11-19T01:32:40;11.90;48.00
51811;DHT22;52468;40.116;18.296;2023-11-19T01:35:08;11.80;48.10
51811;DHT22;52468;40.116;18.296;2023-11-19T01:37:36;11.90;47.70
51811;DHT22;52468;40.116;18.296;2023-11-19T01:40:04;11.90;47.50
51811;DHT22;52468;40.116;18.296;2023-11-19T01:42:40;11.90;47.30
51811;DHT22;52468;40.116;18.296;2023-11-19T01:45:09;11.90;47.20
51811;DHT22;52468;40.116;18.296;2023-11-19T01:47:38;12.00;46.30
51811;DHT22;52468;40.116;18.296;2023-11-19T01:50:07;12.00;45.90
51811;DHT22;52468;40.116;18.296;2023-11-19T01:52:36;12.00;45.60
51811;DHT22;52468;40.116;18.296;2023-11-19T01:55:06;12.00;45.20
51811;DHT22;52468;40.116;18.296;2023-11-19T01:57:36;12.00;45.10
51811;DHT22;52468;40.116;18.296;2023-11-19T02:00:07;12.00;45.00
51811;DHT22;52468;40.116;18.296;2023-11-19T02:02:43;12.00;45.00
51811;DHT22;52468;40.116;18.296;2023-11-19T02:05:12;12.00;44.80
51811;DHT22;52468;40.116;18.296;2023-11-19T02:07:40;12.00;44.90
51811;DHT22;52468;40.116;18.296;2023-11-19T02:10:09;12.00;45.00
51811;DHT22;52468;40.116;18.296;2023-11-19T02:12:41;12.00;45.10
51811;DHT22;52468;40.116;18.296;2023-11-19T02:15:12;11.90;45.40
51811;DHT22;52468;40.116;18.296;2023-11-19T02:17:40;11.80;45.70
51811;DHT22;52468;40.116;18.296;2023-11-19T02:20:09;11.80;46.00
51811;DHT22;52468;40.116;18.296;2023-11-19T02:22:39;11.70;46.40
51811;DHT22;52468;40.116;18.296;2023-11-19T02:25:17;11.70;46.60
51811;DHT22;52468;40.116;18.296;2023-11-19T02:28:04;11.60;46.90
51811;DHT22;52468;40.116;18.296;2023-11-19T02:30:33;11.60;47.20
51811;DHT22;52468;40.116;18.296;2023-11-19T02:33:01;11.60;47.30
51811;DHT22;52468;40.116;18.296;2023-11-19T02:35:33;11.70;47.30
51811;DHT22;52468;40.116;18.296;2023-11-19T02:38:01;11.60;47.30
51811;DHT22;52468;40.116;18.296;2023-11-19T02:40:31;11.60;47.30
51811;DHT22;52468;40.116;18.296;2023-11-19T02:42:59;11.50;47.50
51811;DHT22;52468;40.116;18.296;2023-11-19T02:45:27;11.40;47.70
51811;DHT22;52468;40.116;18.296;2023-11-19T02:47:58;11.30;48.00
51811;DHT22;52468;40.116;18.296;2023-11-19T02:50:29;11.30;48.20
51811;DHT22;52468;40.116;18.296;2023-11-19T02:52:57;11.30;48.40
51811;DHT22;52468;40.116;18.296;2023-11-19T02:55:25;11.30;48.50
51811;DHT22;52468;40.116;18.296;2023-11-19T02:57:55;11.30;48.70
51811;DHT22;52468;40.116;18.296;2023-11-19T03:00:26;11.30;48.70
51811;DHT22;52468;40.116;18.296;2023-11-19T03:03:04;11.40;48.50
51811;DHT22;52468;40.116;18.296;2023-11-19T03:05:52;11.40;48.40
51811;DHT22;52468;40.116;18.296;2023-11-19T03:08:20;11.40;48.20
51811;DHT22;52468;40.116;18.296;2023-11-19T03:10:50;11.50;47.80
51811;DHT22;52468;40.116;18.296;2023-11-19T03:13:18;11.40;47.80
51811;DHT22;52468;40.116;18.296;2023-11-19T03:15:46;11.40;47.90
51811;DHT22;52468;40.116;18.296;2023-11-19T03:18:14;11.30;48.10
51811;DHT22;52468;40.116;18.296;2023-11-19T03:20:42;11.20;48.30
51811;DHT22;52468;40.116;18.296;2023-11-19T03:23:09;11.10;48.80
51811;DHT22;52468;40.116;18.296;2023-11-19T03:25:38;11.10;49.10
51811;DHT22;52468;40.116;18.296;2023-11-19T03:28:05;11.00;49.50
51811;DHT22;52468;40.116;18.296;2023-11-19T03:30:34;11.00;49.60
51811;DHT22;52468;40.116;18.296;2023-11-19T03:33:02;11.00;50.00
51811;DHT22;52468;40.116;18.296;2023-11-19T03:35:30;11.00;50.40
51811;DHT22;52468;40.116;18.296;2023-11-19T03:37:58;10.90;50.90
51811;DHT22;52468;40.116;18.296;2023-11-19T03:40:26;10.80;51.40
51811;DHT22;52468;40.116;18.296;2023-11-19T03:42:56;10.80;51.70
51811;DHT22;52468;40.116;18.296;2023-11-19T03:45:27;10.80;51.80
51811;DHT22;52468;40.116;18.296;2023-11-19T03:47:55;10.80;52.00
51811;DHT22;52468;40.116;18.296;2023-11-19T03:50:23;10.80;52.10
51811;DHT22;52468;40.116;18.296;2023-11-19T03:52:51;10.80;52.10
51811;DHT22;52468;40.116;18.296;2023-11-19T03:55:20;10.70;52.10
51811;DHT22;52468;40.116;18.296;2023-11-19T03:57:48;10.60;52.30
51811;DHT22;52468;40.116;18.296;2023-11-19T04:00:16;10.50;52.60
51811;DHT22;52468;40.116;18.296;2023-11-19T04:02:44;10.40;52.90
51811;DHT22;52468;40.116;18.296;2023-11-19T04:05:14;10.30;53.20
51811;DHT22;52468;40.116;18.296;2023-11-19T04:07:42;10.10;53.80
51811;DHT22;52468;40.116;18.296;2023-11-19T04:10:10;9.90;54.50
51811;DHT22;52468;40.116;18.296;2023-11-19T04:12:38;9.60;55.70
51811;DHT22;52468;40.116;18.296;2023-11-19T04:15:06;9.40;56.80
51811;DHT22;52468;40.116;18.296;2023-11-19T04:17:34;9.20;58.00
51811;DHT22;52468;40.116;18.296;2023-11-19T04:20:03;9.10;58.70
51811;DHT22;52468;40.116;18.296;2023-11-19T04:22:31;9.00;59.00
51811;DHT22;52468;40.116;18.296;2023-11-19T04:24:59;9.10;59.00
51811;DHT22;52468;40.116;18.296;2023-11-19T04:27:27;9.20;59.00
51811;DHT22;52468;40.116;18.296;2023-11-19T04:29:55;9.20;58.90
51811;DHT22;52468;40.116;18.296;2023-11-19T04:32:23;9.20;59.00
51811;DHT22;52468;40.116;18.296;2023-11-19T04:34:53;9.30;58.90
51811;DHT22;52468;40.116;18.296;2023-11-19T04:37:20;9.30;59.00
51811;DHT22;52468;40.116;18.296;2023-11-19T04:39:48;9.40;58.90
51811;DHT22;52468;40.116;18.296;2023-11-19T04:42:16;9.50;58.60
51811;DHT22;52468;40.116;18.296;2023-11-19T04:44:44;9.60;58.40
51811;DHT22;52468;40.116;18.296;2023-11-19T04:47:12;9.50;58.60
51811;DHT22;52468;40.116;18.296;2023-11-19T04:49:41;9.30;58.80
51811;DHT22;52468;40.116;18.296;2023-11-19T04:52:12;9.20;59.00
51811;DHT22;52468;40.116;18.296;2023-11-19T04:54:43;9.10;59.40
51811;DHT22;52468;40.116;18.296;2023-11-19T04:57:11;9.00;59.80
51811;DHT22;52468;40.116;18.296;2023-11-19T04:59:40;8.80;60.30
51811;DHT22;52468;40.116;18.296;2023-11-19T05:02:09;8.70;60.70
51811;DHT22;52468;40.116;18.296;2023-11-19T05:04:37;8.60;60.90
51811;DHT22;52468;40.116;18.296;2023-11-19T05:07:07;8.60;61.00
51811;DHT22;52468;40.116;18.296;2023-11-19T05:09:35;8.70;60.90
51811;DHT22;52468;40.116;18.296;2023-11-19T05:12:03;8.70;61.10
51811;DHT22;52468;40.116;18.296;2023-11-19T05:14:31;8.80;61.00
51811;DHT22;52468;40.116;18.296;2023-11-19T05:16:59;8.80;60.90
51811;DHT22;52468;40.116;18.296;2023-11-19T05:19:27;8.90;60.80
51811;DHT22;52468;40.116;18.296;2023-11-19T05:21:56;8.90;60.80
51811;DHT22;52468;40.116;18.296;2023-11-19T05:24:24;8.90;60.90
51811;DHT22;52468;40.116;18.296;2023-11-19T05:26:52;8.90;60.90
51811;DHT22;52468;40.116;18.296;2023-11-19T05:29:20;8.90;60.90
51811;DHT22;52468;40.116;18.296;2023-11-19T05:31:48;9.00;60.80
51811;DHT22;52468;40.116;18.296;2023-11-19T05:34:16;9.00;60.70
51811;DHT22;52468;40.116;18.296;2023-11-19T05:36:43;9.00;60.80
51811;DHT22;52468;40.116;18.296;2023-11-19T05:39:13;8.90;60.90
51811;DHT22;52468;40.116;18.296;2023-11-19T05:41:41;8.90;61.00
51811;DHT22;52468;40.116;18.296;2023-11-19T05:44:08;8.90;61.00
51811;DHT22;52468;40.116;18.296;2023-11-19T05:46:36;8.90;61.10
51811;DHT22;52468;40.116;18.296;2023-11-19T05:49:08;8.90;61.10
51811;DHT22;52468;40.116;18.296;2023-11-19T05:51:38;8.90;61.10
51811;DHT22;52468;40.116;18.296;2023-11-19T05:54:09;8.90;61.20
51811;DHT22;52468;40.116;18.296;2023-11-19T05:56:37;8.80;61.50
51811;DHT22;52468;40.116;18.296;2023-11-19T05:59:05;8.90;61.50
51811;DHT22;52468;40.116;18.296;2023-11-19T06:01:43;8.80;61.70
51811;DHT22;52468;40.116;18.296;2023-11-19T06:04:11;9.00;61.30
51811;DHT22;52468;40.116;18.296;2023-11-19T06:06:39;9.00;61.50
51811;DHT22;52468;40.116;18.296;2023-11-19T06:09:08;9.10;61.30
51811;DHT22;52468;40.116;18.296;2023-11-19T06:11:40;9.20;61.20
51811;DHT22;52468;40.116;18.296;2023-11-19T06:14:08;9.40;60.80
51811;DHT22;52468;40.116;18.296;2023-11-19T06:16:36;9.40;60.60
51811;DHT22;52468;40.116;18.296;2023-11-19T06:19:04;9.50;60.60
51811;DHT22;52468;40.116;18.296;2023-11-19T06:21:32;9.60;60.20
51811;DHT22;52468;40.116;18.296;2023-11-19T06:24:00;9.70;59.90
51811;DHT22;52468;40.116;18.296;2023-11-19T06:26:28;9.90;59.70
51811;DHT22;52468;40.116;18.296;2023-11-19T06:28:56;10.00;59.10
51811;DHT22;52468;40.116;18.296;2023-11-19T06:31:23;10.20;58.70
51811;DHT22;52468;40.116;18.296;2023-11-19T06:33:51;10.30;58.40
51811;DHT22;52468;40.116;18.296;2023-11-19T06:36:19;10.40;58.00
51811;DHT22;52468;40.116;18.296;2023-11-19T06:38:47;10.60;57.70
51811;DHT22;52468;40.116;18.296;2023-11-19T06:41:15;10.70;57.30
51811;DHT22;52468;40.116;18.296;2023-11-19T06:43:43;10.90;57.00
51811;DHT22;52468;40.116;18.296;2023-11-19T06:46:17;11.00;56.40
51811;DHT22;52468;40.116;18.296;2023-11-19T06:48:45;11.10;56.30
51811;DHT22;52468;40.116;18.296;2023-11-19T06:51:13;11.10;56.10
51811;DHT22;52468;40.116;18.296;2023-11-19T06:53:42;11.30;55.90
51811;DHT22;52468;40.116;18.296;2023-11-19T06:56:22;11.50;55.50
51811;DHT22;52468;40.116;18.296;2023-11-19T06:58:51;11.60;55.20
51811;DHT22;52468;40.116;18.296;2023-11-19T07:01:19;11.70;54.80
51811;DHT22;52468;40.116;18.296;2023-11-19T07:03:47;11.80;54.20
51811;DHT22;52468;40.116;18.296;2023-11-19T07:06:16;11.90;54.30
51811;DHT22;52468;40.116;18.296;2023-11-19T07:08:44;11.90;54.10
51811;DHT22;52468;40.116;18.296;2023-11-19T07:11:13;12.00;54.00
51811;DHT22;52468;40.116;18.296;2023-11-19T07:13:44;12.20;53.70
51811;DHT22;52468;40.116;18.296;2023-11-19T07:16:14;12.30;53.50
51811;DHT22;52468;40.116;18.296;2023-11-19T07:18:42;12.40;53.30
51811;DHT22;52468;40.116;18.296;2023-11-19T07:21:11;12.50;53.00
51811;DHT22;52468;40.116;18.296;2023-11-19T07:23:39;12.60;52.70
51811;DHT22;52468;40.116;18.296;2023-11-19T07:26:07;12.70;52.60
51811;DHT22;52468;40.116;18.296;2023-11-19T07:28:38;12.80;52.20
51811;DHT22;52468;40.116;18.296;2023-11-19T07:31:07;13.00;51.70
51811;DHT22;52468;40.116;18.296;2023-11-19T07:33:35;13.10;51.30
51811;DHT22;52468;40.116;18.296;2023-11-19T07:36:03;13.20;51.50
51811;DHT22;52468;40.116;18.296;2023-11-19T07:38:31;13.40;50.80
51811;DHT22;52468;40.116;18.296;2023-11-19T07:41:01;13.50;50.70
51811;DHT22;52468;40.116;18.296;2023-11-19T07:43:29;13.60;50.30
51811;DHT22;52468;40.116;18.296;2023-11-19T07:45:57;13.70;50.10
51811;DHT22;52468;40.116;18.296;2023-11-19T07:48:26;13.70;50.00
51811;DHT22;52468;40.116;18.296;2023-11-19T07:50:54;13.80;50.10
51811;DHT22;52468;40.116;18.296;2023-11-19T07:53:22;14.00;49.90
51811;DHT22;52468;40.116;18.296;2023-11-19T07:55:50;14.10;49.60
51811;DHT22;52468;40.116;18.296;2023-11-19T07:58:18;14.20;49.10
51811;DHT22;52468;40.116;18.296;2023-11-19T08:00:46;14.40;48.90
51811;DHT22;52468;40.116;18.296;2023-11-19T08:03:14;14.40;48.60
51811;DHT22;52468;40.116;18.296;2023-11-19T08:05:42;14.50;48.60
51811;DHT22;52468;40.116;18.296;2023-11-19T08:08:10;14.60;48.30
51811;DHT22;52468;40.116;18.296;2023-11-19T08:10:38;14.60;47.90
51811;DHT22;52468;40.116;18.296;2023-11-19T08:13:07;14.70;47.70
51811;DHT22;52468;40.116;18.296;2023-11-19T08:15:35;14.80;47.00
51811;DHT22;52468;40.116;18.296;2023-11-19T08:18:03;14.90;46.90
51811;DHT22;52468;40.116;18.296;2023-11-19T08:20:31;15.10;46.40
51811;DHT22;52468;40.116;18.296;2023-11-19T08:22:59;15.10;46.40
51811;DHT22;52468;40.116;18.296;2023-11-19T08:25:27;15.20;46.30
51811;DHT22;52468;40.116;18.296;2023-11-19T08:27:55;15.40;46.10
51811;DHT22;52468;40.116;18.296;2023-11-19T08:30:23;15.50;45.80
51811;DHT22;52468;40.116;18.296;2023-11-19T08:32:51;15.60;45.40
51811;DHT22;52468;40.116;18.296;2023-11-19T08:35:19;15.60;45.30
51811;DHT22;52468;40.116;18.296;2023-11-19T08:37:47;15.60;45.20
51811;DHT22;52468;40.116;18.296;2023-11-19T08:40:15;15.80;44.70
51811;DHT22;52468;40.116;18.296;2023-11-19T08:42:44;15.80;44.40
51811;DHT22;52468;40.116;18.296;2023-11-19T08:45:12;15.80;44.00
51811;DHT22;52468;40.116;18.296;2023-11-19T08:47:40;15.80;44.00
51811;DHT22;52468;40.116;18.296;2023-11-19T08:50:08;15.90;44.30
51811;DHT22;52468;40.116;18.296;2023-11-19T08:52:37;16.10;43.90
51811;DHT22;52468;40.116;18.296;2023-11-19T08:55:05;16.20;43.70
51811;DHT22;52468;40.116;18.296;2023-11-19T08:57:33;16.30;43.30
51811;DHT22;52468;40.116;18.296;2023-11-19T09:00:01;16.40;43.20
51811;DHT22;52468;40.116;18.296;2023-11-19T09:02:30;16.50;42.80
51811;DHT22;52468;40.116;18.296;2023-11-19T09:05:00;16.60;42.40
51811;DHT22;52468;40.116;18.296;2023-11-19T09:07:28;16.50;42.00
51811;DHT22;52468;40.116;18.296;2023-11-19T09:09:56;16.50;41.90
51811;DHT22;52468;40.116;18.296;2023-11-19T09:12:24;16.50;40.90
51811;DHT22;52468;40.116;18.296;2023-11-19T09:14:51;16.30;41.20
51811;DHT22;52468;40.116;18.296;2023-11-19T09:17:19;16.30;41.50
51811;DHT22;52468;40.116;18.296;2023-11-19T09:19:47;16.40;41.40
51811;DHT22;52468;40.116;18.296;2023-11-19T09:22:15;16.50;41.50
51811;DHT22;52468;40.116;18.296;2023-11-19T09:24:44;16.50;41.50
51811;DHT22;52468;40.116;18.296;2023-11-19T09:27:12;16.60;41.40
51811;DHT22;52468;40.116;18.296;2023-11-19T09:29:40;16.60;41.50
51811;DHT22;52468;40.116;18.296;2023-11-19T09:32:08;16.60;41.50
51811;DHT22;52468;40.116;18.296;2023-11-19T09:34:36;16.70;41.30
51811;DHT22;52468;40.116;18.296;2023-11-19T09:37:04;16.80;40.80
51811;DHT22;52468;40.116;18.296;2023-11-19T09:39:47;16.80;40.90
51811;DHT22;52468;40.116;18.296;2023-11-19T09:42:15;16.90;40.90
51811;DHT22;52468;40.116;18.296;2023-11-19T09:44:43;17.00;40.40
51811;DHT22;52468;40.116;18.296;2023-11-19T09:47:12;17.00;40.40
51811;DHT22;52468;40.116;18.296;2023-11-19T09:49:41;17.00;40.40
51811;DHT22;52468;40.116;18.296;2023-11-19T09:52:09;17.00;40.40
51811;DHT22;52468;40.116;18.296;2023-11-19T09:54:37;17.00;40.70
51811;DHT22;52468;40.116;18.296;2023-11-19T09:57:07;17.10;40.60
51811;DHT22;52468;40.116;18.296;2023-11-19T09:59:35;17.10;40.70
51811;DHT22;52468;40.116;18.296;2023-11-19T10:02:04;17.10;40.80
51811;DHT22;52468;40.116;18.296;2023-11-19T10:04:34;17.10;40.90
51811;DHT22;52468;40.116;18.296;2023-11-19T10:07:04;17.30;40.90
51811;DHT22;52468;40.116;18.296;2023-11-19T10:09:32;17.30;40.60
51811;DHT22;52468;40.116;18.296;2023-11-19T10:12:00;17.40;41.00
51811;DHT22;52468;40.116;18.296;2023-11-19T10:14:30;17.40;40.80
51811;DHT22;52468;40.116;18.296;2023-11-19T10:16:58;17.50;40.70
51811;DHT22;52468;40.116;18.296;2023-11-19T10:19:31;17.30;41.10
51811;DHT22;52468;40.116;18.296;2023-11-19T10:22:05;17.30;41.30
51811;DHT22;52468;40.116;18.296;2023-11-19T10:24:34;17.50;41.00
51811;DHT22;52468;40.116;18.296;2023-11-19T10:27:02;17.50;40.90
51811;DHT22;52468;40.116;18.296;2023-11-19T10:29:31;17.70;40.40
51811;DHT22;52468;40.116;18.296;2023-11-19T10:31:59;17.80;40.30
51811;DHT22;52468;40.116;18.296;2023-11-19T10:34:27;17.80;40.60
51811;DHT22;52468;40.116;18.296;2023-11-19T10:36:55;17.70;40.30
51811;DHT22;52468;40.116;18.296;2023-11-19T10:39:23;17.70;40.60
51811;DHT22;52468;40.116;18.296;2023-11-19T10:42:15;17.70;40.80
51811;DHT22;52468;40.116;18.296;2023-11-19T10:44:44;17.60;41.00
51811;DHT22;52468;40.116;18.296;2023-11-19T10:47:14;17.80;41.00
51811;DHT22;52468;40.116;18.296;2023-11-19T10:49:42;17.80;40.80
51811;DHT22;52468;40.116;18.296;2023-11-19T10:52:10;17.70;41.10
51811;DHT22;52468;40.116;18.296;2023-11-19T10:54:40;17.50;41.20
51811;DHT22;52468;40.116;18.296;2023-11-19T10:57:12;17.50;41.40
51811;DHT22;52468;40.116;18.296;2023-11-19T10:59:45;17.50;41.70
51811;DHT22;52468;40.116;18.296;2023-11-19T11:02:17;17.50;41.90
51811;DHT22;52468;40.116;18.296;2023-11-19T11:04:47;17.70;41.40
51811;DHT22;52468;40.116;18.296;2023-11-19T11:07:21;17.60;41.50
51811;DHT22;52468;40.116;18.296;2023-11-19T11:09:54;17.70;41.60
51811;DHT22;52468;40.116;18.296;2023-11-19T11:12:22;17.70;41.50
51811;DHT22;52468;40.116;18.296;2023-11-19T11:14:53;17.60;41.70
51811;DHT22;52468;40.116;18.296;2023-11-19T11:17:24;17.70;41.80
51811;DHT22;52468;40.116;18.296;2023-11-19T11:19:55;17.80;41.60
51811;DHT22;52468;40.116;18.296;2023-11-19T11:22:24;17.60;42.30
51811;DHT22;52468;40.116;18.296;2023-11-19T11:28:10;18.00;41.90
51811;DHT22;52468;40.116;18.296;2023-11-19T11:30:50;18.10;41.80
51811;DHT22;52468;40.116;18.296;2023-11-19T11:36:17;18.10;40.80
51811;DHT22;52468;40.116;18.296;2023-11-19T11:38:49;18.00;41.20
51811;DHT22;52468;40.116;18.296;2023-11-19T11:41:24;18.00;41.30
51811;DHT22;52468;40.116;18.296;2023-11-19T11:43:55;18.00;41.20
51811;DHT22;52468;40.116;18.296;2023-11-19T11:49:06;17.90;42.30
51811;DHT22;52468;40.116;18.296;2023-11-19T12:02:08;18.00;41.70
51811;DHT22;52468;40.116;18.296;2023-11-19T12:04:37;18.00;41.70
51811;DHT22;52468;40.116;18.296;2023-11-19T12:07:06;18.00;41.70
51811;DHT22;52468;40.116;18.296;2023-11-19T12:09:35;17.80;41.90
51811;DHT22;52468;40.116;18.296;2023-11-19T12:20:05;17.90;42.60
51811;DHT22;52468;40.116;18.296;2023-11-19T12:22:43;17.80;42.40
51811;DHT22;52468;40.116;18.296;2023-11-19T12:25:12;17.70;42.10
51811;DHT22;52468;40.116;18.296;2023-11-19T12:27:45;17.60;42.60
51811;DHT22;52468;40.116;18.296;2023-11-19T12:30:26;17.60;42.90
51811;DHT22;52468;40.116;18.296;2023-11-19T12:32:54;17.40;43.40
51811;DHT22;52468;40.116;18.296;2023-11-19T12:35:22;17.50;43.10
51811;DHT22;52468;40.116;18.296;2023-11-19T12:37:51;17.30;43.50
51811;DHT22;52468;40.116;18.296;2023-11-19T12:40:22;17.20;43.60
51811;DHT22;52468;40.116;18.296;2023-11-19T12:42:54;17.20;43.80
51811;DHT22;52468;40.116;18.296;2023-11-19T12:45:22;17.30;43.70
51811;DHT22;52468;40.116;18.296;2023-11-19T12:48:07;17.40;42.90
51811;DHT22;52468;40.116;18.296;2023-11-19T12:50:53;17.30;43.10
51811;DHT22;52468;40.116;18.296;2023-11-19T12:53:23;17.30;43.10
51811;DHT22;52468;40.116;18.296;2023-11-19T12:55:51;17.40;43.40
51811;DHT22;52468;40.116;18.296;2023-11-19T12:58:35;17.30;43.90
51811;DHT22;52468;40.116;18.296;2023-11-19T13:01:06;17.30;44.10
51811;DHT22;52468;40.116;18.296;2023-11-19T13:03:37;17.30;43.40
51811;DHT22;52468;40.116;18.296;2023-11-19T13:06:13;17.20;43.90
51811;DHT22;52468;40.116;18.296;2023-11-19T13:08:48;17.10;44.30
51811;DHT22;52468;40.116;18.296;2023-11-19T13:11:34;17.10;44.10
51811;DHT22;52468;40.116;18.296;2023-11-19T13:14:03;17.00;44.20
51811;DHT22;52468;40.116;18.296;2023-11-19T13:16:32;17.10;44.00
51811;DHT22;52468;40.116;18.296;2023-11-19T13:19:00;17.10;44.10
51811;DHT22;52468;40.116;18.296;2023-11-19T13:21:29;17.10;44.20
51811;DHT22;52468;40.116;18.296;2023-11-19T13:23:59;17.10;44.40
51811;DHT22;52468;40.116;18.296;2023-11-19T13:26:27;17.20;44.40
51811;DHT22;52468;40.116;18.296;2023-11-19T13:28:55;17.20;44.10
51811;DHT22;52468;40.116;18.296;2023-11-19T13:31:23;17.20;44.20
51811;DHT22;52468;40.116;18.296;2023-11-19T13:33:51;17.10;44.80
51811;DHT22;52468;40.116;18.296;2023-11-19T13:36:19;17.10;44.80
51811;DHT22;52468;40.116;18.296;2023-11-19T13:38:47;17.10;44.30
51811;DHT22;52468;40.116;18.296;2023-11-19T13:41:15;17.00;44.20
51811;DHT22;52468;40.116;18.296;2023-11-19T13:43:43;16.90;45.10
51811;DHT22;52468;40.116;18.296;2023-11-19T13:46:12;16.90;45.70
51811;DHT22;52468;40.116;18.296;2023-11-19T13:48:40;16.80;45.80
51811;DHT22;52468;40.116;18.296;2023-11-19T13:51:07;16.70;45.20
51811;DHT22;52468;40.116;18.296;2023-11-19T13:53:37;16.70;45.40
51811;DHT22;52468;40.116;18.296;2023-11-19T13:56:08;16.70;45.10
51811;DHT22;52468;40.116;18.296;2023-11-19T13:58:36;16.60;45.30
51811;DHT22;52468;40.116;18.296;2023-11-19T14:01:04;16.50;45.80
51811;DHT22;52468;40.116;18.296;2023-11-19T14:03:33;16.40;46.70
51811;DHT22;52468;40.116;18.296;2023-11-19T14:06:01;16.40;47.20
51811;DHT22;52468;40.116;18.296;2023-11-19T14:08:30;16.60;46.80
51811;DHT22;52468;40.116;18.296;2023-11-19T14:10:58;16.60;45.80
51811;DHT22;52468;40.116;18.296;2023-11-19T14:13:26;16.50;45.90
51811;DHT22;52468;40.116;18.296;2023-11-19T14:15:54;16.40;46.00
51811;DHT22;52468;40.116;18.296;2023-11-19T14:18:22;16.40;45.80
51811;DHT22;52468;40.116;18.296;2023-11-19T14:20:50;16.30;45.90
51811;DHT22;52468;40.116;18.296;2023-11-19T14:23:18;16.30;46.30
51811;DHT22;52468;40.116;18.296;2023-11-19T14:25:46;16.20;46.90
51811;DHT22;52468;40.116;18.296;2023-11-19T14:28:14;16.20;47.20
51811;DHT22;52468;40.116;18.296;2023-11-19T14:30:42;16.20;47.50
51811;DHT22;52468;40.116;18.296;2023-11-19T14:33:10;16.10;47.80
51811;DHT22;52468;40.116;18.296;2023-11-19T14:35:38;16.00;48.20
51811;DHT22;52468;40.116;18.296;2023-11-19T14:38:06;16.00;48.70
51811;DHT22;52468;40.116;18.296;2023-11-19T14:40:37;16.00;48.70
51811;DHT22;52468;40.116;18.296;2023-11-19T14:43:08;15.80;49.20
51811;DHT22;52468;40.116;18.296;2023-11-19T14:45:38;15.80;49.10
51811;DHT22;52468;40.116;18.296;2023-11-19T14:48:08;15.70;49.10
51811;DHT22;52468;40.116;18.296;2023-11-19T14:50:36;15.70;49.40
51811;DHT22;52468;40.116;18.296;2023-11-19T14:53:04;15.60;50.00
51811;DHT22;52468;40.116;18.296;2023-11-19T14:55:32;15.60;50.30
51811;DHT22;52468;40.116;18.296;2023-11-19T14:58:00;15.50;50.80
51811;DHT22;52468;40.116;18.296;2023-11-19T15:00:28;15.40;51.10
51811;DHT22;52468;40.116;18.296;2023-11-19T15:02:56;15.40;51.30
51811;DHT22;52468;40.116;18.296;2023-11-19T15:05:24;15.30;51.70
51811;DHT22;52468;40.116;18.296;2023-11-19T15:07:52;15.30;51.90
51811;DHT22;52468;40.116;18.296;2023-11-19T15:10:21;15.20;52.00
51811;DHT22;52468;40.116;18.296;2023-11-19T15:12:48;15.10;52.20
51811;DHT22;52468;40.116;18.296;2023-11-19T15:15:17;15.00;52.50
51811;DHT22;52468;40.116;18.296;2023-11-19T15:18:02;15.00;52.70
51811;DHT22;52468;40.116;18.296;2023-11-19T15:20:30;15.00;52.90
51811;DHT22;52468;40.116;18.296;2023-11-19T15:22:59;14.80;53.40
51811;DHT22;52468;40.116;18.296;2023-11-19T15:25:27;14.80;53.70
51811;DHT22;52468;40.116;18.296;2023-11-19T15:27:55;14.70;53.90
51811;DHT22;52468;40.116;18.296;2023-11-19T15:30:23;14.60;54.10
51811;DHT22;52468;40.116;18.296;2023-11-19T15:32:50;14.50;54.30
51811;DHT22;52468;40.116;18.296;2023-11-19T15:35:19;14.50;54.50
51811;DHT22;52468;40.116;18.296;2023-11-19T15:37:46;14.30;54.90
51811;DHT22;52468;40.116;18.296;2023-11-19T15:40:14;14.20;55.30
51811;DHT22;52468;40.116;18.296;2023-11-19T15:42:43;14.10;56.00
51811;DHT22;52468;40.116;18.296;2023-11-19T15:45:12;13.90;56.70
51811;DHT22;52468;40.116;18.296;2023-11-19T15:47:40;13.70;57.30
51811;DHT22;52468;40.116;18.296;2023-11-19T15:50:08;13.50;57.80
51811;DHT22;52468;40.116;18.296;2023-11-19T15:52:38;13.30;58.40
51811;DHT22;52468;40.116;18.296;2023-11-19T15:55:07;13.20;58.90
51811;DHT22;52468;40.116;18.296;2023-11-19T15:57:35;13.10;59.50